sensor_id;sensor_type;location;lat;lon;timestamp;temperature;humidity
64817;DHT22;53289;45.602;11.904;2023-01-15T00:01:25;2.10;80.40
64817;DHT22;53289;45.602;11.904;2023-01-15T00:03:53;2.10;80.30
64817;DHT22;53289;45.602;11.904;2023-01-15T00:06:20;2.10;80.40
64817;DHT22;53289;45.602;11.904;2023-01-15T00:08:47;2.10;80.50
64817;DHT22;53289;45.602;11.904;2023-01-15T00:11:13;2.10;80.50
64817;DHT22;53289;45.602;11.904;2023-01-15T00:13:39;2.10;80.50
64817;DHT22;53289;45.602;11.904;2023-01-15T00:16:26;2.20;80.60
64817;DHT22;53289;45.602;11.904;2023-01-15T00:18:54;2.20;80.30
64817;DHT22;53289;45.602;11.904;2023-01-15T00:21:21;2.30;80.50
64817;DHT22;53289;45.602;11.904;2023-01-15T00:23:48;2.30;80.50
64817;DHT22;53289;45.602;11.904;2023-01-15T00:26:33;2.30;80.50
64817;DHT22;53289;45.602;11.904;2023-01-15T00:29:19;2.40;80.50
64817;DHT22;53289;45.602;11.904;2023-01-15T00:34:19;2.40;80.30
64817;DHT22;53289;45.602;11.904;2023-01-15T00:36:45;2.50;80.40
64817;DHT22;53289;45.602;11.904;2023-01-15T00:39:11;2.50;80.10
64817;DHT22;53289;45.602;11.904;2023-01-15T00:41:37;2.50;79.80
64817;DHT22;53289;45.602;11.904;2023-01-15T00:44:03;2.50;79.70
64817;DHT22;53289;45.602;11.904;2023-01-15T00:46:28;2.50;79.70
64817;DHT22;53289;45.602;11.904;2023-01-15T00:48:54;2.50;79.80
64817;DHT22;53289;45.602;11.904;2023-01-15T00:51:20;2.60;79.90
64817;DHT22;53289;45.602;11.904;2023-01-15T00:53:46;2.60;80.00
64817;DHT22;53289;45.602;11.904;2023-01-15T00:56:11;2.60;80.00
64817;DHT22;53289;45.602;11.904;2023-01-15T00:58:37;2.70;79.90
64817;DHT22;53289;45.602;11.904;2023-01-15T01:01:03;2.80;79.80
64817;DHT22;53289;45.602;11.904;2023-01-15T01:03:29;2.80;79.90
64817;DHT22;53289;45.602;11.904;2023-01-15T01:05:59;2.80;80.00
64817;DHT22;53289;45.602;11.904;2023-01-15T01:08:26;2.90;79.90
64817;DHT22;53289;45.602;11.904;2023-01-15T01:11:01;2.90;80.10
64817;DHT22;53289;45.602;11.904;2023-01-15T01:13:27;2.90;80.00
64817;DHT22;53289;45.602;11.904;2023-01-15T01:15:53;2.90;80.00
64817;DHT22;53289;45.602;11.904;2023-01-15T01:18:18;2.90;79.90
64817;DHT22;53289;45.602;11.904;2023-01-15T01:20:44;3.00;80.00
64817;DHT22;53289;45.602;11.904;2023-01-15T01:23:10;3.00;79.90
64817;DHT22;53289;45.602;11.904;2023-01-15T01:25:35;3.10;79.80
64817;DHT22;53289;45.602;11.904;2023-01-15T01:28:01;3.10;79.80
64817;DHT22;53289;45.602;11.904;2023-01-15T01:30:27;3.10;79.80
64817;DHT22;53289;45.602;11.904;2023-01-15T01:32:53;3.10;79.70
64817;DHT22;53289;45.602;11.904;2023-01-15T01:35:18;3.20;79.80
64817;DHT22;53289;45.602;11.904;2023-01-15T01:37:49;3.30;79.80
64817;DHT22;53289;45.602;11.904;2023-01-15T01:40:16;3.30;79.70
64817;DHT22;53289;45.602;11.904;2023-01-15T01:42:43;3.40;79.80
64817;DHT22;53289;45.602;11.904;2023-01-15T01:45:30;3.50;79.80
64817;DHT22;53289;45.602;11.904;2023-01-15T01:48:01;3.50;79.70
64817;DHT22;53289;45.602;11.904;2023-01-15T01:50:29;3.50;79.90
64817;DHT22;53289;45.602;11.904;2023-01-15T01:53:10;3.60;80.00
64817;DHT22;53289;45.602;11.904;2023-01-15T01:55:37;3.70;79.80
64817;DHT22;53289;45.602;11.904;2023-01-15T01:58:06;3.70;80.00
64817;DHT22;53289;45.602;11.904;2023-01-15T02:00:34;3.70;80.10
64817;DHT22;53289;45.602;11.904;2023-01-15T02:03:01;3.80;80.10
64817;DHT22;53289;45.602;11.904;2023-01-15T02:05:32;3.80;80.20
64817;DHT22;53289;45.602;11.904;2023-01-15T02:08:00;3.90;80.00
64817;DHT22;53289;45.602;11.904;2023-01-15T02:10:26;3.90;80.20
64817;DHT22;53289;45.602;11.904;2023-01-15T02:13:03;3.90;80.20
64817;DHT22;53289;45.602;11.904;2023-01-15T02:15:39;4.00;80.10
64817;DHT22;53289;45.602;11.904;2023-01-15T02:18:31;4.00;80.10
64817;DHT22;53289;45.602;11.904;2023-01-15T02:21:49;4.10;80.10
64817;DHT22;53289;45.602;11.904;2023-01-15T02:29:09;4.10;80.10
64817;DHT22;53289;45.602;11.904;2023-01-15T02:31:40;4.10;80.00
64817;DHT22;53289;45.602;11.904;2023-01-15T02:34:11;4.10;79.90
64817;DHT22;53289;45.602;11.904;2023-01-15T02:36:42;4.10;80.00
64817;DHT22;53289;45.602;11.904;2023-01-15T02:39:12;4.10;80.10
64817;DHT22;53289;45.602;11.904;2023-01-15T02:41:45;4.10;80.20
64817;DHT22;53289;45.602;11.904;2023-01-15T02:44:15;4.10;80.20
64817;DHT22;53289;45.602;11.904;2023-01-15T02:46:42;4.10;80.30
64817;DHT22;53289;45.602;11.904;2023-01-15T02:49:12;4.20;80.40
64817;DHT22;53289;45.602;11.904;2023-01-15T02:51:45;4.20;80.40
64817;DHT22;53289;45.602;11.904;2023-01-15T02:54:14;4.20;80.40
64817;DHT22;53289;45.602;11.904;2023-01-15T02:56:44;4.30;80.40
64817;DHT22;53289;45.602;11.904;2023-01-15T02:59:21;4.30;80.50
64817;DHT22;53289;45.602;11.904;2023-01-15T03:01:58;4.40;80.40
64817;DHT22;53289;45.602;11.904;2023-01-15T03:04:31;4.40;80.40
64817;DHT22;53289;45.602;11.904;2023-01-15T03:09:46;4.50;79.90
64817;DHT22;53289;45.602;11.904;2023-01-15T03:15:07;4.60;79.80
64817;DHT22;53289;45.602;11.904;2023-01-15T03:17:44;4.70;80.10
64817;DHT22;53289;45.602;11.904;2023-01-15T03:20:23;4.70;80.30
64817;DHT22;53289;45.602;11.904;2023-01-15T03:22:55;4.80;80.30
64817;DHT22;53289;45.602;11.904;2023-01-15T03:25:35;4.90;80.20
64817;DHT22;53289;45.602;11.904;2023-01-15T03:28:03;4.90;80.10
64817;DHT22;53289;45.602;11.904;2023-01-15T03:30:30;4.90;80.20
64817;DHT22;53289;45.602;11.904;2023-01-15T03:32:57;4.90;80.30
64817;DHT22;53289;45.602;11.904;2023-01-15T03:38:09;5.00;80.00
64817;DHT22;53289;45.602;11.904;2023-01-15T03:40:37;5.00;80.30
64817;DHT22;53289;45.602;11.904;2023-01-15T03:43:09;5.00;80.30
64817;DHT22;53289;45.602;11.904;2023-01-15T03:45:58;5.00;80.30
64817;DHT22;53289;45.602;11.904;2023-01-15T03:48:37;5.10;80.20
64817;DHT22;53289;45.602;11.904;2023-01-15T03:53:52;5.10;80.30
64817;DHT22;53289;45.602;11.904;2023-01-15T03:59:16;5.20;79.70
64817;DHT22;53289;45.602;11.904;2023-01-15T04:01:40;5.20;79.70
64817;DHT22;53289;45.602;11.904;2023-01-15T04:04:07;5.10;79.90
64817;DHT22;53289;45.602;11.904;2023-01-15T04:06:35;5.10;79.90
64817;DHT22;53289;45.602;11.904;2023-01-15T04:09:05;5.10;79.90
64817;DHT22;53289;45.602;11.904;2023-01-15T04:11:33;5.10;79.90
64817;DHT22;53289;45.602;11.904;2023-01-15T04:13:59;5.10;80.00
64817;DHT22;53289;45.602;11.904;2023-01-15T04:16:27;5.10;79.80
64817;DHT22;53289;45.602;11.904;2023-01-15T04:18:53;5.10;79.90
64817;DHT22;53289;45.602;11.904;2023-01-15T04:21:20;5.10;79.90
64817;DHT22;53289;45.602;11.904;2023-01-15T04:23:46;5.10;80.00
64817;DHT22;53289;45.602;11.904;2023-01-15T04:26:12;5.10;80.00
64817;DHT22;53289;45.602;11.904;2023-01-15T04:28:39;5.10;80.00
64817;DHT22;53289;45.602;11.904;2023-01-15T04:31:05;5.10;79.80
64817;DHT22;53289;45.602;11.904;2023-01-15T04:33:31;5.10;79.90
64817;DHT22;53289;45.602;11.904;2023-01-15T04:36:03;5.10;79.90
64817;DHT22;53289;45.602;11.904;2023-01-15T04:38:29;5.10;79.90
64817;DHT22;53289;45.602;11.904;2023-01-15T04:40:57;5.00;79.90
64817;DHT22;53289;45.602;11.904;2023-01-15T04:43:43;5.00;80.00
64817;DHT22;53289;45.602;11.904;2023-01-15T04:46:27;4.90;80.00
64817;DHT22;53289;45.602;11.904;2023-01-15T04:48:53;4.90;80.00
64817;DHT22;53289;45.602;11.904;2023-01-15T04:51:19;4.90;79.90
64817;DHT22;53289;45.602;11.904;2023-01-15T04:53:44;4.80;79.90
64817;DHT22;53289;45.602;11.904;2023-01-15T04:56:10;4.80;79.90
64817;DHT22;53289;45.602;11.904;2023-01-15T04:58:36;4.60;79.90
64817;DHT22;53289;45.602;11.904;2023-01-15T05:01:11;4.60;79.90
64817;DHT22;53289;45.602;11.904;2023-01-15T05:03:37;4.40;80.00
64817;DHT22;53289;45.602;11.904;2023-01-15T05:06:03;4.40;80.20
64817;DHT22;53289;45.602;11.904;2023-01-15T05:08:29;4.40;80.40
64817;DHT22;53289;45.602;11.904;2023-01-15T05:10:55;4.30;80.50
64817;DHT22;53289;45.602;11.904;2023-01-15T05:13:21;4.30;80.50
64817;DHT22;53289;45.602;11.904;2023-01-15T05:15:47;4.30;80.60
64817;DHT22;53289;45.602;11.904;2023-01-15T05:18:13;4.20;80.70
64817;DHT22;53289;45.602;11.904;2023-01-15T05:20:40;4.20;80.70
64817;DHT22;53289;45.602;11.904;2023-01-15T05:23:06;4.20;80.70
64817;DHT22;53289;45.602;11.904;2023-01-15T05:25:35;4.10;80.80
64817;DHT22;53289;45.602;11.904;2023-01-15T05:28:01;4.10;80.70
64817;DHT22;53289;45.602;11.904;2023-01-15T05:30:27;4.10;80.70
64817;DHT22;53289;45.602;11.904;2023-01-15T05:32:52;4.10;80.80
64817;DHT22;53289;45.602;11.904;2023-01-15T05:35:18;4.10;80.90
64817;DHT22;53289;45.602;11.904;2023-01-15T05:37:44;4.10;80.90
64817;DHT22;53289;45.602;11.904;2023-01-15T05:40:10;4.10;81.00
64817;DHT22;53289;45.602;11.904;2023-01-15T05:42:36;4.00;81.00
64817;DHT22;53289;45.602;11.904;2023-01-15T05:45:02;4.10;81.10
64817;DHT22;53289;45.602;11.904;2023-01-15T05:47:28;4.10;81.00
64817;DHT22;53289;45.602;11.904;2023-01-15T05:49:54;4.10;81.10
64817;DHT22;53289;45.602;11.904;2023-01-15T05:52:20;4.10;81.20
64817;DHT22;53289;45.602;11.904;2023-01-15T05:54:48;4.20;81.30
64817;DHT22;53289;45.602;11.904;2023-01-15T05:57:14;4.20;81.20
64817;DHT22;53289;45.602;11.904;2023-01-15T05:59:40;4.30;81.20
64817;DHT22;53289;45.602;11.904;2023-01-15T06:02:06;4.30;81.00
64817;DHT22;53289;45.602;11.904;2023-01-15T06:04:32;4.30;81.10
64817;DHT22;53289;45.602;11.904;2023-01-15T06:06:58;4.40;80.90
64817;DHT22;53289;45.602;11.904;2023-01-15T06:09:25;4.40;80.90
64817;DHT22;53289;45.602;11.904;2023-01-15T06:11:52;4.40;80.90
64817;DHT22;53289;45.602;11.904;2023-01-15T06:14:18;4.40;81.00
64817;DHT22;53289;45.602;11.904;2023-01-15T06:16:44;4.40;80.90
64817;DHT22;53289;45.602;11.904;2023-01-15T06:19:11;4.40;80.90
64817;DHT22;53289;45.602;11.904;2023-01-15T06:21:38;4.40;80.80
64817;DHT22;53289;45.602;11.904;2023-01-15T06:24:04;4.40;80.90
64817;DHT22;53289;45.602;11.904;2023-01-15T06:26:30;4.50;80.90
64817;DHT22;53289;45.602;11.904;2023-01-15T06:28:56;4.50;80.90
64817;DHT22;53289;45.602;11.904;2023-01-15T06:31:23;4.50;80.90
64817;DHT22;53289;45.602;11.904;2023-01-15T06:33:51;4.50;80.90
64817;DHT22;53289;45.602;11.904;2023-01-15T06:36:19;4.50;81.10
64817;DHT22;53289;45.602;11.904;2023-01-15T06:38:46;4.60;80.80
64817;DHT22;53289;45.602;11.904;2023-01-15T06:41:18;4.60;80.70
64817;DHT22;53289;45.602;11.904;2023-01-15T06:44:03;4.70;80.80
64817;DHT22;53289;45.602;11.904;2023-01-15T06:46:49;4.70;80.80
64817;DHT22;53289;45.602;11.904;2023-01-15T06:49:35;4.80;80.90
64817;DHT22;53289;45.602;11.904;2023-01-15T06:52:02;4.90;80.70
64817;DHT22;53289;45.602;11.904;2023-01-15T06:54:29;4.90;80.60
64817;DHT22;53289;45.602;11.904;2023-01-15T06:56:54;4.90;80.60
64817;DHT22;53289;45.602;11.904;2023-01-15T06:59:20;4.90;80.70
64817;DHT22;53289;45.602;11.904;2023-01-15T07:01:46;4.90;80.60
64817;DHT22;53289;45.602;11.904;2023-01-15T07:04:12;5.00;80.80
64817;DHT22;53289;45.602;11.904;2023-01-15T07:06:38;5.00;80.90
64817;DHT22;53289;45.602;11.904;2023-01-15T07:09:04;5.00;81.00
64817;DHT22;53289;45.602;11.904;2023-01-15T07:11:30;4.90;81.10
64817;DHT22;53289;45.602;11.904;2023-01-15T07:13:56;5.00;81.00
64817;DHT22;53289;45.602;11.904;2023-01-15T07:16:32;4.90;81.30
64817;DHT22;53289;45.602;11.904;2023-01-15T07:18:58;4.90;81.00
64817;DHT22;53289;45.602;11.904;2023-01-15T07:21:24;4.90;80.90
64817;DHT22;53289;45.602;11.904;2023-01-15T07:23:50;4.90;80.90
64817;DHT22;53289;45.602;11.904;2023-01-15T07:26:15;4.90;80.90
64817;DHT22;53289;45.602;11.904;2023-01-15T07:28:41;4.90;81.00
64817;DHT22;53289;45.602;11.904;2023-01-15T07:31:07;5.00;81.00
64817;DHT22;53289;45.602;11.904;2023-01-15T07:33:33;5.00;81.10
64817;DHT22;53289;45.602;11.904;2023-01-15T07:36:01;5.00;81.00
64817;DHT22;53289;45.602;11.904;2023-01-15T07:38:27;5.00;81.00
64817;DHT22;53289;45.602;11.904;2023-01-15T07:40:57;5.00;81.10
64817;DHT22;53289;45.602;11.904;2023-01-15T07:43:42;5.00;81.00
64817;DHT22;53289;45.602;11.904;2023-01-15T07:46:26;5.10;81.10
64817;DHT22;53289;45.602;11.904;2023-01-15T07:49:11;5.20;81.00
64817;DHT22;53289;45.602;11.904;2023-01-15T07:51:55;5.30;80.80
64817;DHT22;53289;45.602;11.904;2023-01-15T07:54:21;5.40;80.50
64817;DHT22;53289;45.602;11.904;2023-01-15T07:56:48;5.40;80.50
64817;DHT22;53289;45.602;11.904;2023-01-15T07:59:13;5.40;80.60
64817;DHT22;53289;45.602;11.904;2023-01-15T08:01:39;5.40;80.60
64817;DHT22;53289;45.602;11.904;2023-01-15T08:04:05;5.50;80.60
64817;DHT22;53289;45.602;11.904;2023-01-15T08:06:31;5.60;80.50
64817;DHT22;53289;45.602;11.904;2023-01-15T08:08:57;5.60;80.40
64817;DHT22;53289;45.602;11.904;2023-01-15T08:11:22;5.60;80.40
64817;DHT22;53289;45.602;11.904;2023-01-15T08:14:08;5.70;80.40
64817;DHT22;53289;45.602;11.904;2023-01-15T08:16:53;5.70;80.20
64817;DHT22;53289;45.602;11.904;2023-01-15T08:19:19;5.80;80.50
64817;DHT22;53289;45.602;11.904;2023-01-15T08:21:45;5.80;80.50
64817;DHT22;53289;45.602;11.904;2023-01-15T08:24:11;5.80;80.40
64817;DHT22;53289;45.602;11.904;2023-01-15T08:26:37;5.90;80.50
64817;DHT22;53289;45.602;11.904;2023-01-15T08:29:02;5.90;80.50
64817;DHT22;53289;45.602;11.904;2023-01-15T08:31:28;6.00;80.40
64817;DHT22;53289;45.602;11.904;2023-01-15T08:33:54;6.10;80.10
64817;DHT22;53289;45.602;11.904;2023-01-15T08:36:20;6.10;80.00
64817;DHT22;53289;45.602;11.904;2023-01-15T08:38:48;6.10;80.00
64817;DHT22;53289;45.602;11.904;2023-01-15T08:41:15;6.10;79.70
64817;DHT22;53289;45.602;11.904;2023-01-15T08:43:40;6.10;79.90
64817;DHT22;53289;45.602;11.904;2023-01-15T08:46:06;6.00;79.80
64817;DHT22;53289;45.602;11.904;2023-01-15T08:48:32;6.10;79.90
64817;DHT22;53289;45.602;11.904;2023-01-15T08:51:02;6.10;80.10
64817;DHT22;53289;45.602;11.904;2023-01-15T08:53:28;6.10;80.10
64817;DHT22;53289;45.602;11.904;2023-01-15T08:55:54;6.20;80.20
64817;DHT22;53289;45.602;11.904;2023-01-15T08:58:20;6.20;80.20
64817;DHT22;53289;45.602;11.904;2023-01-15T09:00:46;6.30;80.10
64817;DHT22;53289;45.602;11.904;2023-01-15T09:03:13;6.40;80.20
64817;DHT22;53289;45.602;11.904;2023-01-15T09:05:39;6.50;80.20
64817;DHT22;53289;45.602;11.904;2023-01-15T09:08:06;6.60;80.10
64817;DHT22;53289;45.602;11.904;2023-01-15T09:10:33;6.70;80.10
64817;DHT22;53289;45.602;11.904;2023-01-15T09:13:02;6.70;80.00
64817;DHT22;53289;45.602;11.904;2023-01-15T09:15:30;6.80;79.80
64817;DHT22;53289;45.602;11.904;2023-01-15T09:17:57;6.80;79.50
64817;DHT22;53289;45.602;11.904;2023-01-15T09:20:23;6.80;79.30
64817;DHT22;53289;45.602;11.904;2023-01-15T09:22:51;6.80;79.30
64817;DHT22;53289;45.602;11.904;2023-01-15T09:25:17;6.80;79.30
64817;DHT22;53289;45.602;11.904;2023-01-15T09:27:46;6.80;79.20
64817;DHT22;53289;45.602;11.904;2023-01-15T09:30:19;6.90;79.20
64817;DHT22;53289;45.602;11.904;2023-01-15T09:32:45;6.90;79.30
64817;DHT22;53289;45.602;11.904;2023-01-15T09:35:11;7.00;79.30
64817;DHT22;53289;45.602;11.904;2023-01-15T09:37:37;7.10;79.20
64817;DHT22;53289;45.602;11.904;2023-01-15T09:40:03;7.20;79.10
64817;DHT22;53289;45.602;11.904;2023-01-15T09:42:44;7.30;78.80
64817;DHT22;53289;45.602;11.904;2023-01-15T09:45:25;7.30;78.50
64817;DHT22;53289;45.602;11.904;2023-01-15T09:56:24;7.30;78.40
64817;DHT22;53289;45.602;11.904;2023-01-15T09:58:53;7.30;78.40
64817;DHT22;53289;45.602;11.904;2023-01-15T10:01:28;7.30;78.30
64817;DHT22;53289;45.602;11.904;2023-01-15T10:06:49;7.30;78.10
64817;DHT22;53289;45.602;11.904;2023-01-15T10:09:30;7.20;78.10
64817;DHT22;53289;45.602;11.904;2023-01-15T10:12:23;7.20;77.90
64817;DHT22;53289;45.602;11.904;2023-01-15T10:17:59;7.20;78.10
64817;DHT22;53289;45.602;11.904;2023-01-15T10:20:43;7.30;78.30
64817;DHT22;53289;45.602;11.904;2023-01-15T10:26:36;7.50;78.40
64817;DHT22;53289;45.602;11.904;2023-01-15T10:32:33;7.80;78.00
64817;DHT22;53289;45.602;11.904;2023-01-15T10:41:13;8.20;77.40
64817;DHT22;53289;45.602;11.904;2023-01-15T10:46:52;8.40;76.70
64817;DHT22;53289;45.602;11.904;2023-01-15T10:49:18;8.40;76.60
64817;DHT22;53289;45.602;11.904;2023-01-15T10:52:03;8.40;76.60
64817;DHT22;53289;45.602;11.904;2023-01-15T11:00:09;8.60;76.30
64817;DHT22;53289;45.602;11.904;2023-01-15T11:02:48;8.70;76.30
64817;DHT22;53289;45.602;11.904;2023-01-15T11:05:17;8.80;75.90
64817;DHT22;53289;45.602;11.904;2023-01-15T11:07:49;8.80;75.70
64817;DHT22;53289;45.602;11.904;2023-01-15T11:10:18;8.90;75.50
64817;DHT22;53289;45.602;11.904;2023-01-15T11:12:53;8.80;75.50
64817;DHT22;53289;45.602;11.904;2023-01-15T11:15:38;8.80;75.60
64817;DHT22;53289;45.602;11.904;2023-01-15T11:18:28;8.70;75.40
64817;DHT22;53289;45.602;11.904;2023-01-15T11:21:17;8.70;75.60
64817;DHT22;53289;45.602;11.904;2023-01-15T11:23:44;8.70;75.50
64817;DHT22;53289;45.602;11.904;2023-01-15T11:26:19;8.60;75.50
64817;DHT22;53289;45.602;11.904;2023-01-15T11:28:46;8.60;75.70
64817;DHT22;53289;45.602;11.904;2023-01-15T11:31:13;8.60;75.60
64817;DHT22;53289;45.602;11.904;2023-01-15T11:33:39;8.60;75.60
64817;DHT22;53289;45.602;11.904;2023-01-15T11:36:20;8.50;75.60
64817;DHT22;53289;45.602;11.904;2023-01-15T11:38:49;8.50;75.60
64817;DHT22;53289;45.602;11.904;2023-01-15T11:44:11;8.40;75.70
64817;DHT22;53289;45.602;11.904;2023-01-15T11:46:55;8.40;75.70
64817;DHT22;53289;45.602;11.904;2023-01-15T11:49:39;8.40;75.60
64817;DHT22;53289;45.602;11.904;2023-01-15T11:52:32;8.40;75.60
64817;DHT22;53289;45.602;11.904;2023-01-15T11:54:58;8.30;75.70
64817;DHT22;53289;45.602;11.904;2023-01-15T11:57:30;8.20;75.90
64817;DHT22;53289;45.602;11.904;2023-01-15T11:59:57;8.20;76.10
64817;DHT22;53289;45.602;11.904;2023-01-15T12:02:43;8.20;76.20
64817;DHT22;53289;45.602;11.904;2023-01-15T12:05:18;8.20;76.20
64817;DHT22;53289;45.602;11.904;2023-01-15T12:07:47;8.20;76.30
64817;DHT22;53289;45.602;11.904;2023-01-15T12:10:39;8.20;76.30
64817;DHT22;53289;45.602;11.904;2023-01-15T12:19:32;8.30;76.40
64817;DHT22;53289;45.602;11.904;2023-01-15T12:29:58;8.30;76.70
64817;DHT22;53289;45.602;11.904;2023-01-15T12:32:32;8.20;76.90
64817;DHT22;53289;45.602;11.904;2023-01-15T12:35:21;8.10;77.00
64817;DHT22;53289;45.602;11.904;2023-01-15T12:37:52;8.10;77.30
64817;DHT22;53289;45.602;11.904;2023-01-15T12:42:57;8.10;77.70
64817;DHT22;53289;45.602;11.904;2023-01-15T12:45:53;8.10;77.50
64817;DHT22;53289;45.602;11.904;2023-01-15T12:48:36;8.00;77.90
64817;DHT22;53289;45.602;11.904;2023-01-15T12:51:05;8.00;78.00
64817;DHT22;53289;45.602;11.904;2023-01-15T12:56:20;8.00;78.10
64817;DHT22;53289;45.602;11.904;2023-01-15T12:59:11;8.00;78.20
64817;DHT22;53289;45.602;11.904;2023-01-15T13:01:59;8.10;78.20
64817;DHT22;53289;45.602;11.904;2023-01-15T13:04:50;8.10;78.20
64817;DHT22;53289;45.602;11.904;2023-01-15T13:07:39;8.10;78.10
64817;DHT22;53289;45.602;11.904;2023-01-15T13:10:16;8.10;78.20
64817;DHT22;53289;45.602;11.904;2023-01-15T13:12:42;8.10;78.50
64817;DHT22;53289;45.602;11.904;2023-01-15T13:15:13;8.10;78.40
64817;DHT22;53289;45.602;11.904;2023-01-15T13:18:08;8.10;78.60
64817;DHT22;53289;45.602;11.904;2023-01-15T13:20:51;8.10;78.70
64817;DHT22;53289;45.602;11.904;2023-01-15T13:34:09;8.20;78.90
64817;DHT22;53289;45.602;11.904;2023-01-15T13:36:40;8.30;78.90
64817;DHT22;53289;45.602;11.904;2023-01-15T13:39:18;8.30;78.80
64817;DHT22;53289;45.602;11.904;2023-01-15T13:41:48;8.40;78.70
64817;DHT22;53289;45.602;11.904;2023-01-15T13:44:38;8.40;78.60
64817;DHT22;53289;45.602;11.904;2023-01-15T13:47:10;8.50;78.50
64817;DHT22;53289;45.602;11.904;2023-01-15T13:49:40;8.50;78.50
64817;DHT22;53289;45.602;11.904;2023-01-15T13:52:28;8.50;78.40
64817;DHT22;53289;45.602;11.904;2023-01-15T13:55:19;8.60;78.20
64817;DHT22;53289;45.602;11.904;2023-01-15T13:57:47;8.60;78.20
64817;DHT22;53289;45.602;11.904;2023-01-15T14:00:33;8.60;78.30
64817;DHT22;53289;45.602;11.904;2023-01-15T14:03:02;8.50;78.40
64817;DHT22;53289;45.602;11.904;2023-01-15T14:05:58;8.40;78.60
64817;DHT22;53289;45.602;11.904;2023-01-15T14:08:39;8.40;78.60
64817;DHT22;53289;45.602;11.904;2023-01-15T14:11:30;8.30;78.90
64817;DHT22;53289;45.602;11.904;2023-01-15T14:28:10;7.70;80.10
64817;DHT22;53289;45.602;11.904;2023-01-15T14:35:56;7.50;80.60
64817;DHT22;53289;45.602;11.904;2023-01-15T14:38:25;7.50;80.60
64817;DHT22;53289;45.602;11.904;2023-01-15T14:40:53;7.50;80.70
64817;DHT22;53289;45.602;11.904;2023-01-15T14:43:21;7.50;80.80
64817;DHT22;53289;45.602;11.904;2023-01-15T14:45:50;7.40;81.00
64817;DHT22;53289;45.602;11.904;2023-01-15T14:48:33;7.40;81.10
64817;DHT22;53289;45.602;11.904;2023-01-15T14:51:13;7.40;81.20
64817;DHT22;53289;45.602;11.904;2023-01-15T14:56:47;7.30;81.50
64817;DHT22;53289;45.602;11.904;2023-01-15T14:59:24;7.20;81.60
64817;DHT22;53289;45.602;11.904;2023-01-15T15:01:55;7.20;81.90
64817;DHT22;53289;45.602;11.904;2023-01-15T15:07:22;7.10;82.00
64817;DHT22;53289;45.602;11.904;2023-01-15T15:09:55;7.10;82.10
64817;DHT22;53289;45.602;11.904;2023-01-15T15:12:40;7.10;82.10
64817;DHT22;53289;45.602;11.904;2023-01-15T15:25:59;7.00;82.50
64817;DHT22;53289;45.602;11.904;2023-01-15T15:28:26;7.00;82.70
64817;DHT22;53289;45.602;11.904;2023-01-15T15:30:53;7.00;82.70
64817;DHT22;53289;45.602;11.904;2023-01-15T15:33:25;7.10;82.60
64817;DHT22;53289;45.602;11.904;2023-01-15T15:35:54;7.10;82.70
64817;DHT22;53289;45.602;11.904;2023-01-15T15:38:22;7.10;82.60
64817;DHT22;53289;45.602;11.904;2023-01-15T15:40:54;7.10;82.70
64817;DHT22;53289;45.602;11.904;2023-01-15T15:43:28;7.10;82.50
64817;DHT22;53289;45.602;11.904;2023-01-15T15:46:31;7.10;82.50
64817;DHT22;53289;45.602;11.904;2023-01-15T15:49:17;7.00;82.70
64817;DHT22;53289;45.602;11.904;2023-01-15T15:54:23;7.00;83.00
64817;DHT22;53289;45.602;11.904;2023-01-15T15:57:06;7.00;82.90
64817;DHT22;53289;45.602;11.904;2023-01-15T15:59:37;7.00;82.90
64817;DHT22;53289;45.602;11.904;2023-01-15T16:04:56;7.00;82.80
64817;DHT22;53289;45.602;11.904;2023-01-15T16:07:25;6.90;83.10
64817;DHT22;53289;45.602;11.904;2023-01-15T16:09:55;6.90;83.10
64817;DHT22;53289;45.602;11.904;2023-01-15T16:12:22;6.90;83.00
64817;DHT22;53289;45.602;11.904;2023-01-15T16:14:50;6.90;83.00
64817;DHT22;53289;45.602;11.904;2023-01-15T16:17:16;6.90;83.00
64817;DHT22;53289;45.602;11.904;2023-01-15T16:19:43;6.80;83.00
64817;DHT22;53289;45.602;11.904;2023-01-15T16:22:14;6.80;83.10
64817;DHT22;53289;45.602;11.904;2023-01-15T16:24:40;6.80;83.10
64817;DHT22;53289;45.602;11.904;2023-01-15T16:27:17;6.80;83.20
64817;DHT22;53289;45.602;11.904;2023-01-15T16:29:49;6.80;83.30
64817;DHT22;53289;45.602;11.904;2023-01-15T16:32:23;6.70;83.40
64817;DHT22;53289;45.602;11.904;2023-01-15T16:34:59;6.70;83.50
64817;DHT22;53289;45.602;11.904;2023-01-15T16:37:28;6.60;83.60
64817;DHT22;53289;45.602;11.904;2023-01-15T16:40:01;6.60;83.60
64817;DHT22;53289;45.602;11.904;2023-01-15T16:42:36;6.60;83.60
64817;DHT22;53289;45.602;11.904;2023-01-15T16:45:27;6.60;83.70
64817;DHT22;53289;45.602;11.904;2023-01-15T16:50:45;6.60;83.70
64817;DHT22;53289;45.602;11.904;2023-01-15T16:55:56;6.60;84.10
64817;DHT22;53289;45.602;11.904;2023-01-15T16:58:33;6.60;84.10
64817;DHT22;53289;45.602;11.904;2023-01-15T17:01:00;6.70;84.00
64817;DHT22;53289;45.602;11.904;2023-01-15T17:03:27;6.70;83.90
64817;DHT22;53289;45.602;11.904;2023-01-15T17:06:00;6.70;83.90
64817;DHT22;53289;45.602;11.904;2023-01-15T17:08:35;6.60;83.80
64817;DHT22;53289;45.602;11.904;2023-01-15T17:11:06;6.60;84.10
64817;DHT22;53289;45.602;11.904;2023-01-15T17:16:47;6.60;84.30
64817;DHT22;53289;45.602;11.904;2023-01-15T17:19:14;6.60;84.40
64817;DHT22;53289;45.602;11.904;2023-01-15T17:21:41;6.60;84.30
64817;DHT22;53289;45.602;11.904;2023-01-15T17:24:12;6.60;84.20
64817;DHT22;53289;45.602;11.904;2023-01-15T17:26:39;6.60;84.10
64817;DHT22;53289;45.602;11.904;2023-01-15T17:29:04;6.70;84.10
64817;DHT22;53289;45.602;11.904;2023-01-15T17:31:32;6.70;84.20
64817;DHT22;53289;45.602;11.904;2023-01-15T17:33:59;6.70;84.30
64817;DHT22;53289;45.602;11.904;2023-01-15T17:36:27;6.60;84.30
64817;DHT22;53289;45.602;11.904;2023-01-15T17:38:54;6.70;84.20
64817;DHT22;53289;45.602;11.904;2023-01-15T17:41:21;6.70;84.30
64817;DHT22;53289;45.602;11.904;2023-01-15T17:43:48;6.70;84.30
64817;DHT22;53289;45.602;11.904;2023-01-15T17:46:15;6.70;84.30
64817;DHT22;53289;45.602;11.904;2023-01-15T17:48:42;6.60;84.20
64817;DHT22;53289;45.602;11.904;2023-01-15T17:51:14;6.60;84.20
64817;DHT22;53289;45.602;11.904;2023-01-15T17:53:41;6.60;84.30
64817;DHT22;53289;45.602;11.904;2023-01-15T17:56:07;6.60;84.30
64817;DHT22;53289;45.602;11.904;2023-01-15T17:58:52;6.60;84.20
64817;DHT22;53289;45.602;11.904;2023-01-15T18:01:40;6.60;84.30
64817;DHT22;53289;45.602;11.904;2023-01-15T18:04:26;6.60;84.50
64817;DHT22;53289;45.602;11.904;2023-01-15T18:07:13;6.60;84.40
64817;DHT22;53289;45.602;11.904;2023-01-15T18:09:40;6.60;84.40
64817;DHT22;53289;45.602;11.904;2023-01-15T18:12:06;6.60;84.50
64817;DHT22;53289;45.602;11.904;2023-01-15T18:14:33;6.60;84.40
64817;DHT22;53289;45.602;11.904;2023-01-15T18:16:59;6.60;84.50